sensor_id;sensor_type;location;lat;lon;timestamp;pressure;altitude;pressure_sealevel;temperature;humidity
20622;BME280;10470;42.670;23.354;2022-09-09T00:03:45;95060.78;;;19.19;100.00
20622;BME280;10470;42.670;23.354;2022-09-09T00:06:28;95068.22;;;18.91;100.00
20622;BME280;10470;42.670;23.354;2022-09-09T00:09:04;95072.06;;;19.05;100.00
20622;BME280;10470;42.670;23.354;2022-09-09T00:11:40;95072.44;;;19.40;100.00
20622;BME280;10470;42.670;23.354;2022-09-09T00:14:45;95079.16;;;19.23;100.00
20622;BME280;10470;42.670;23.354;2022-09-09T00:17:31;95080.44;;;19.33;100.00
20622;BME280;10470;42.670;23.354;2022-09-09T00:20:13;95070.41;;;19.35;100.00
20622;BME280;10470;42.670;23.354;2022-09-09T00:22:46;95060.56;;;19.29;100.00
20622;BME280;10470;42.670;23.354;2022-09-09T00:25:28;95042.22;;;19.20;100.00
20622;BME280;10470;42.670;23.354;2022-09-09T00:27:58;95052.00;;;19.21;100.00
20622;BME280;10470;42.670;23.354;2022-09-09T00:30:29;95047.00;;;19.25;100.00
20622;BME280;10470;42.670;23.354;2022-09-09T00:33:03;95047.41;;;19.01;100.00
20622;BME280;10470;42.670;23.354;2022-09-09T00:35:44;95037.09;;;18.96;100.00
20622;BME280;10470;42.670;23.354;2022-09-09T00:38:19;95036.13;;;18.99;100.00
20622;BME280;10470;42.670;23.354;2022-09-09T00:40:58;95026.34;;;19.04;100.00
20622;BME280;10470;42.670;23.354;2022-09-09T00:46:04;95025.00;;;18.76;100.00
20622;BME280;10470;42.670;23.354;2022-09-09T00:51:59;95022.84;;;19.14;100.00
20622;BME280;10470;42.670;23.354;2022-09-09T00:57:13;95034.34;;;18.96;100.00
20622;BME280;10470;42.670;23.354;2022-09-09T00:59:49;95025.88;;;19.16;100.00
20622;BME280;10470;42.670;23.354;2022-09-09T01:02:26;95027.13;;;19.15;100.00
20622;BME280;10470;42.670;23.354;2022-09-09T01:04:53;95036.06;;;18.82;100.00
20622;BME280;10470;42.670;23.354;2022-09-09T01:07:20;95027.06;;;18.98;100.00
20622;BME280;10470;42.670;23.354;2022-09-09T01:09:59;95021.50;;;18.82;100.00
20622;BME280;10470;42.670;23.354;2022-09-09T01:12:41;95035.75;;;18.74;100.00
20622;BME280;10470;42.670;23.354;2022-09-09T01:15:19;95024.28;;;18.93;100.00
20622;BME280;10470;42.670;23.354;2022-09-09T01:18:09;95030.53;;;18.82;100.00
20622;BME280;10470;42.670;23.354;2022-09-09T01:21:15;95040.59;;;18.85;100.00
20622;BME280;10470;42.670;23.354;2022-09-09T01:28:54;95022.97;;;18.77;100.00
20622;BME280;10470;42.670;23.354;2022-09-09T01:31:23;95030.06;;;18.84;100.00
20622;BME280;10470;42.670;23.354;2022-09-09T01:33:51;95025.81;;;18.45;100.00
20622;BME280;10470;42.670;23.354;2022-09-09T01:36:40;95030.41;;;18.60;100.00
20622;BME280;10470;42.670;23.354;2022-09-09T01:39:08;95036.19;;;18.62;100.00
20622;BME280;10470;42.670;23.354;2022-09-09T01:41:33;95043.53;;;18.70;100.00
20622;BME280;10470;42.670;23.354;2022-09-09T01:43:59;95034.25;;;18.73;100.00
20622;BME280;10470;42.670;23.354;2022-09-09T01:46:24;95035.69;;;18.63;100.00
20622;BME280;10470;42.670;23.354;2022-09-09T01:48:52;95028.66;;;18.62;100.00
20622;BME280;10470;42.670;23.354;2022-09-09T01:51:18;95041.56;;;18.39;100.00
20622;BME280;10470;42.670;23.354;2022-09-09T01:53:44;95046.75;;;18.69;100.00
20622;BME280;10470;42.670;23.354;2022-09-09T02:04:30;95053.00;;;18.58;100.00
20622;BME280;10470;42.670;23.354;2022-09-09T02:07:01;95049.41;;;18.52;100.00
20622;BME280;10470;42.670;23.354;2022-09-09T02:09:29;95047.91;;;18.51;100.00
20622;BME280;10470;42.670;23.354;2022-09-09T02:12:25;95041.88;;;18.47;100.00
20622;BME280;10470;42.670;23.354;2022-09-09T02:14:56;95046.06;;;18.37;100.00
20622;BME280;10470;42.670;23.354;2022-09-09T02:17:29;95036.03;;;18.33;100.00
20622;BME280;10470;42.670;23.354;2022-09-09T02:20:09;95032.53;;;18.39;100.00
20622;BME280;10470;42.670;23.354;2022-09-09T02:22:37;95018.72;;;18.33;100.00
20622;BME280;10470;42.670;23.354;2022-09-09T02:25:06;95022.75;;;18.38;100.00
20622;BME280;10470;42.670;23.354;2022-09-09T02:27:33;95025.06;;;18.45;100.00
20622;BME280;10470;42.670;23.354;2022-09-09T02:29:59;95034.25;;;18.30;100.00
20622;BME280;10470;42.670;23.354;2022-09-09T02:32:28;95033.56;;;18.41;100.00
20622;BME280;10470;42.670;23.354;2022-09-09T02:35:17;95031.72;;;18.27;100.00
20622;BME280;10470;42.670;23.354;2022-09-09T02:37:45;95037.00;;;18.30;100.00
20622;BME280;10470;42.670;23.354;2022-09-09T02:40:12;95033.53;;;18.36;100.00
20622;BME280;10470;42.670;23.354;2022-09-09T02:42:48;95041.03;;;18.29;100.00
20622;BME280;10470;42.670;23.354;2022-09-09T02:45:25;95045.56;;;18.32;100.00
20622;BME280;10470;42.670;23.354;2022-09-09T02:56:30;95041.63;;;18.07;100.00
20622;BME280;10470;42.670;23.354;2022-09-09T02:58:59;95042.47;;;18.19;100.00
20622;BME280;10470;42.670;23.354;2022-09-09T03:01:25;95044.06;;;18.00;100.00
20622;BME280;10470;42.670;23.354;2022-09-09T03:03:50;95042.56;;;17.99;100.00
20622;BME280;10470;42.670;23.354;2022-09-09T03:06:16;95053.09;;;17.74;100.00
20622;BME280;10470;42.670;23.354;2022-09-09T03:08:41;95044.94;;;17.80;100.00
20622;BME280;10470;42.670;23.354;2022-09-09T03:11:07;95053.28;;;17.91;100.00
20622;BME280;10470;42.670;23.354;2022-09-09T03:13:34;95056.38;;;17.73;100.00
20622;BME280;10470;42.670;23.354;2022-09-09T03:16:00;95053.06;;;17.68;100.00
20622;BME280;10470;42.670;23.354;2022-09-09T03:18:25;95049.91;;;17.50;100.00
20622;BME280;10470;42.670;23.354;2022-09-09T03:20:51;95051.59;;;17.73;100.00
20622;BME280;10470;42.670;23.354;2022-09-09T03:23:16;95049.47;;;17.83;100.00
20622;BME280;10470;42.670;23.354;2022-09-09T03:25:50;95048.13;;;17.78;100.00
20622;BME280;10470;42.670;23.354;2022-09-09T03:28:17;95037.03;;;17.67;100.00
20622;BME280;10470;42.670;23.354;2022-09-09T03:30:43;95048.44;;;17.80;100.00
20622;BME280;10470;42.670;23.354;2022-09-09T03:33:08;95043.63;;;17.23;100.00
20622;BME280;10470;42.670;23.354;2022-09-09T03:35:34;95049.56;;;17.42;100.00
20622;BME280;10470;42.670;23.354;2022-09-09T03:37:59;95044.69;;;17.05;100.00
20622;BME280;10470;42.670;23.354;2022-09-09T03:40:26;95043.41;;;17.53;100.00
20622;BME280;10470;42.670;23.354;2022-09-09T03:42:51;95046.31;;;17.69;100.00
20622;BME280;10470;42.670;23.354;2022-09-09T03:45:17;95026.25;;;17.69;100.00
20622;BME280;10470;42.670;23.354;2022-09-09T03:47:42;95041.84;;;17.72;100.00
20622;BME280;10470;42.670;23.354;2022-09-09T03:50:08;95051.13;;;17.75;100.00
20622;BME280;10470;42.670;23.354;2022-09-09T03:52:39;95040.09;;;17.75;100.00
20622;BME280;10470;42.670;23.354;2022-09-09T03:55:06;95057.34;;;17.69;100.00
20622;BME280;10470;42.670;23.354;2022-09-09T03:57:34;95047.69;;;17.80;100.00
20622;BME280;10470;42.670;23.354;2022-09-09T04:00:05;95051.72;;;17.84;100.00
20622;BME280;10470;42.670;23.354;2022-09-09T04:02:32;95059.50;;;17.86;100.00
20622;BME280;10470;42.670;23.354;2022-09-09T04:04:57;95057.16;;;17.79;100.00
20622;BME280;10470;42.670;23.354;2022-09-09T04:07:23;95060.63;;;17.74;100.00
20622;BME280;10470;42.670;23.354;2022-09-09T04:09:48;95051.34;;;17.71;100.00
20622;BME280;10470;42.670;23.354;2022-09-09T04:12:14;95059.59;;;17.71;100.00
20622;BME280;10470;42.670;23.354;2022-09-09T04:14:39;95051.94;;;17.55;100.00
20622;BME280;10470;42.670;23.354;2022-09-09T04:17:04;95044.75;;;17.63;100.00
20622;BME280;10470;42.670;23.354;2022-09-09T04:19:32;95044.16;;;17.79;100.00
20622;BME280;10470;42.670;23.354;2022-09-09T04:21:57;95037.09;;;17.46;100.00
20622;BME280;10470;42.670;23.354;2022-09-09T04:24:23;95046.53;;;17.66;100.00
20622;BME280;10470;42.670;23.354;2022-09-09T04:26:50;95056.53;;;17.89;100.00
20622;BME280;10470;42.670;23.354;2022-09-09T04:29:15;95041.13;;;17.77;100.00
20622;BME280;10470;42.670;23.354;2022-09-09T04:31:41;95058.59;;;18.00;100.00
20622;BME280;10470;42.670;23.354;2022-09-09T04:34:08;95060.97;;;17.81;100.00
20622;BME280;10470;42.670;23.354;2022-09-09T04:36:34;95044.22;;;17.85;100.00
20622;BME280;10470;42.670;23.354;2022-09-09T04:39:00;95060.75;;;18.17;100.00
20622;BME280;10470;42.670;23.354;2022-09-09T04:41:27;95057.78;;;17.88;100.00
20622;BME280;10470;42.670;23.354;2022-09-09T04:43:53;95070.91;;;17.99;100.00
20622;BME280;10470;42.670;23.354;2022-09-09T04:46:22;95067.31;;;17.87;100.00
20622;BME280;10470;42.670;23.354;2022-09-09T04:48:49;95064.63;;;17.99;100.00
20622;BME280;10470;42.670;23.354;2022-09-09T04:51:15;95062.91;;;17.75;100.00
20622;BME280;10470;42.670;23.354;2022-09-09T04:53:41;95056.38;;;17.73;100.00
20622;BME280;10470;42.670;23.354;2022-09-09T04:56:11;95048.84;;;17.73;100.00
20622;BME280;10470;42.670;23.354;2022-09-09T04:58:38;95051.16;;;18.06;100.00
20622;BME280;10470;42.670;23.354;2022-09-09T05:03:33;95051.03;;;18.27;100.00
20622;BME280;10470;42.670;23.354;2022-09-09T05:06:13;95057.63;;;18.35;100.00
20622;BME280;10470;42.670;23.354;2022-09-09T05:08:40;95051.16;;;18.49;100.00
20622;BME280;10470;42.670;23.354;2022-09-09T05:11:19;95035.16;;;18.59;100.00
20622;BME280;10470;42.670;23.354;2022-09-09T05:13:45;95035.81;;;18.37;100.00
20622;BME280;10470;42.670;23.354;2022-09-09T05:16:12;95037.19;;;18.59;100.00
20622;BME280;10470;42.670;23.354;2022-09-09T05:18:39;95043.59;;;18.82;100.00
20622;BME280;10470;42.670;23.354;2022-09-09T05:21:05;95042.84;;;18.87;100.00
20622;BME280;10470;42.670;23.354;2022-09-09T05:23:32;95042.59;;;18.90;100.00
20622;BME280;10470;42.670;23.354;2022-09-09T05:25:59;95044.66;;;19.01;100.00
20622;BME280;10470;42.670;23.354;2022-09-09T05:28:25;95007.72;;;18.87;100.00
20622;BME280;10470;42.670;23.354;2022-09-09T05:31:02;95031.06;;;18.92;100.00
20622;BME280;10470;42.670;23.354;2022-09-09T05:33:33;95041.91;;;19.01;100.00
20622;BME280;10470;42.670;23.354;2022-09-09T05:36:04;95031.66;;;19.24;100.00
20622;BME280;10470;42.670;23.354;2022-09-09T05:38:31;95033.69;;;19.29;100.00
20622;BME280;10470;42.670;23.354;2022-09-09T05:40:58;95040.00;;;19.35;100.00
20622;BME280;10470;42.670;23.354;2022-09-09T05:43:24;95043.25;;;19.45;100.00
20622;BME280;10470;42.670;23.354;2022-09-09T05:48:40;95047.81;;;19.54;100.00
20622;BME280;10470;42.670;23.354;2022-09-09T05:51:08;95055.59;;;19.61;100.00
20622;BME280;10470;42.670;23.354;2022-09-09T05:53:35;95053.91;;;19.75;100.00
20622;BME280;10470;42.670;23.354;2022-09-09T05:56:04;95043.09;;;19.77;100.00
20622;BME280;10470;42.670;23.354;2022-09-09T05:58:31;95050.13;;;19.95;100.00
20622;BME280;10470;42.670;23.354;2022-09-09T06:01:05;95060.22;;;19.98;100.00
20622;BME280;10470;42.670;23.354;2022-09-09T06:03:34;95057.94;;;19.96;100.00
20622;BME280;10470;42.670;23.354;2022-09-09T06:06:04;95056.66;;;19.97;100.00
20622;BME280;10470;42.670;23.354;2022-09-09T06:08:31;95065.72;;;19.92;100.00
20622;BME280;10470;42.670;23.354;2022-09-09T06:13:30;95076.78;;;20.09;100.00
20622;BME280;10470;42.670;23.354;2022-09-09T06:15:55;95075.78;;;20.18;100.00
20622;BME280;10470;42.670;23.354;2022-09-09T06:18:21;95055.41;;;20.26;100.00
20622;BME280;10470;42.670;23.354;2022-09-09T06:21:16;95067.22;;;20.49;100.00
20622;BME280;10470;42.670;23.354;2022-09-09T06:23:43;95068.94;;;20.64;100.00
20622;BME280;10470;42.670;23.354;2022-09-09T06:26:14;95066.47;;;20.60;100.00
20622;BME280;10470;42.670;23.354;2022-09-09T06:28:41;95077.53;;;20.60;100.00
20622;BME280;10470;42.670;23.354;2022-09-09T06:31:10;95071.22;;;20.48;100.00
20622;BME280;10470;42.670;23.354;2022-09-09T06:33:38;95075.50;;;20.61;100.00
20622;BME280;10470;42.670;23.354;2022-09-09T06:36:07;95065.44;;;20.63;100.00
20622;BME280;10470;42.670;23.354;2022-09-09T06:38:35;95062.91;;;20.71;100.00
20622;BME280;10470;42.670;23.354;2022-09-09T06:41:00;95056.13;;;20.61;100.00
20622;BME280;10470;42.670;23.354;2022-09-09T06:43:27;95051.78;;;20.82;100.00
20622;BME280;10470;42.670;23.354;2022-09-09T06:48:23;95058.72;;;21.06;100.00
20622;BME280;10470;42.670;23.354;2022-09-09T06:50:48;95062.47;;;21.14;100.00
20622;BME280;10470;42.670;23.354;2022-09-09T06:53:18;95043.66;;;20.95;100.00
20622;BME280;10470;42.670;23.354;2022-09-09T06:55:46;95075.63;;;21.08;100.00
20622;BME280;10470;42.670;23.354;2022-09-09T06:58:13;95080.53;;;20.62;100.00
20622;BME280;10470;42.670;23.354;2022-09-09T07:00:38;95079.47;;;20.93;100.00
20622;BME280;10470;42.670;23.354;2022-09-09T07:03:04;95079.31;;;21.22;100.00
20622;BME280;10470;42.670;23.354;2022-09-09T07:05:30;95086.63;;;21.25;100.00
20622;BME280;10470;42.670;23.354;2022-09-09T07:07:55;95085.06;;;21.35;100.00
20622;BME280;10470;42.670;23.354;2022-09-09T07:10:21;95085.06;;;21.35;100.00
20622;BME280;10470;42.670;23.354;2022-09-09T07:12:51;95085.88;;;21.71;100.00
20622;BME280;10470;42.670;23.354;2022-09-09T07:15:20;95069.06;;;21.64;100.00
20622;BME280;10470;42.670;23.354;2022-09-09T07:17:46;95071.47;;;21.78;100.00
20622;BME280;10470;42.670;23.354;2022-09-09T07:20:13;95069.50;;;21.73;100.00
20622;BME280;10470;42.670;23.354;2022-09-09T07:22:40;95074.00;;;21.76;100.00
20622;BME280;10470;42.670;23.354;2022-09-09T07:25:06;95069.94;;;21.83;100.00
20622;BME280;10470;42.670;23.354;2022-09-09T07:27:32;95078.22;;;21.89;100.00
20622;BME280;10470;42.670;23.354;2022-09-09T07:29:57;95066.84;;;21.92;100.00
20622;BME280;10470;42.670;23.354;2022-09-09T07:32:23;95070.03;;;22.02;100.00
20622;BME280;10470;42.670;23.354;2022-09-09T07:34:48;95057.06;;;22.21;100.00
20622;BME280;10470;42.670;23.354;2022-09-09T07:37:15;95058.72;;;22.30;100.00
20622;BME280;10470;42.670;23.354;2022-09-09T07:39:41;95064.59;;;22.51;100.00
20622;BME280;10470;42.670;23.354;2022-09-09T07:42:07;95071.06;;;22.59;100.00
20622;BME280;10470;42.670;23.354;2022-09-09T07:44:34;95066.44;;;22.43;100.00
20622;BME280;10470;42.670;23.354;2022-09-09T07:47:02;95080.00;;;22.52;100.00
20622;BME280;10470;42.670;23.354;2022-09-09T07:49:28;95077.03;;;22.69;100.00
20622;BME280;10470;42.670;23.354;2022-09-09T07:51:53;95071.44;;;22.99;100.00
20622;BME280;10470;42.670;23.354;2022-09-09T07:54:20;95076.44;;;23.25;100.00
20622;BME280;10470;42.670;23.354;2022-09-09T07:56:46;95079.53;;;23.41;100.00
20622;BME280;10470;42.670;23.354;2022-09-09T07:59:12;95076.56;;;22.89;100.00
20622;BME280;10470;42.670;23.354;2022-09-09T08:01:44;95075.03;;;23.38;100.00
20622;BME280;10470;42.670;23.354;2022-09-09T08:04:13;95069.53;;;23.51;100.00
20622;BME280;10470;42.670;23.354;2022-09-09T08:06:45;95075.59;;;23.68;100.00
20622;BME280;10470;42.670;23.354;2022-09-09T08:09:11;95076.84;;;23.35;100.00
20622;BME280;10470;42.670;23.354;2022-09-09T08:11:38;95082.69;;;23.88;100.00
20622;BME280;10470;42.670;23.354;2022-09-09T08:14:04;95066.81;;;23.83;100.00
20622;BME280;10470;42.670;23.354;2022-09-09T08:16:32;95073.69;;;24.14;100.00
20622;BME280;10470;42.670;23.354;2022-09-09T08:18:58;95070.47;;;24.10;100.00
20622;BME280;10470;42.670;23.354;2022-09-09T08:21:27;95074.88;;;24.19;100.00
20622;BME280;10470;42.670;23.354;2022-09-09T08:23:54;95067.91;;;24.58;100.00
20622;BME280;10470;42.670;23.354;2022-09-09T08:26:26;95068.25;;;24.54;100.00
20622;BME280;10470;42.670;23.354;2022-09-09T08:28:54;95067.59;;;24.61;100.00
20622;BME280;10470;42.670;23.354;2022-09-09T08:33:50;95066.44;;;24.70;100.00
20622;BME280;10470;42.670;23.354;2022-09-09T08:36:18;95068.25;;;24.68;100.00
20622;BME280;10470;42.670;23.354;2022-09-09T08:38:51;95067.19;;;24.71;100.00
20622;BME280;10470;42.670;23.354;2022-09-09T08:43:50;95061.47;;;25.03;100.00
20622;BME280;10470;42.670;23.354;2022-09-09T08:46:26;95060.22;;;25.04;100.00
20622;BME280;10470;42.670;23.354;2022-09-09T08:49:07;95059.25;;;24.88;100.00
20622;BME280;10470;42.670;23.354;2022-09-09T08:51:36;95056.78;;;24.84;100.00
20622;BME280;10470;42.670;23.354;2022-09-09T08:54:03;95051.41;;;24.73;100.00
20622;BME280;10470;42.670;23.354;2022-09-09T08:56:31;95053.97;;;24.84;100.00
20622;BME280;10470;42.670;23.354;2022-09-09T08:58:59;95057.84;;;24.81;100.00
20622;BME280;10470;42.670;23.354;2022-09-09T09:06:58;95062.91;;;25.23;100.00
20622;BME280;10470;42.670;23.354;2022-09-09T09:09:56;95053.56;;;25.20;100.00
20622;BME280;10470;42.670;23.354;2022-09-09T09:12:26;95054.06;;;25.05;100.00
20622;BME280;10470;42.670;23.354;2022-09-09T09:14:52;95053.19;;;25.50;100.00
20622;BME280;10470;42.670;23.354;2022-09-09T09:17:23;95067.59;;;25.41;100.00
20622;BME280;10470;42.670;23.354;2022-09-09T09:19:50;95055.09;;;25.56;100.00
20622;BME280;10470;42.670;23.354;2022-09-09T09:25:02;95052.97;;;25.48;100.00
20622;BME280;10470;42.670;23.354;2022-09-09T09:30:15;95047.31;;;25.41;100.00
20622;BME280;10470;42.670;23.354;2022-09-09T09:33:04;95054.41;;;25.02;100.00
20622;BME280;10470;42.670;23.354;2022-09-09T09:35:31;95042.28;;;25.26;100.00
20622;BME280;10470;42.670;23.354;2022-09-09T09:37:57;95048.78;;;25.42;100.00
20622;BME280;10470;42.670;23.354;2022-09-09T09:40:22;95051.34;;;25.53;100.00
20622;BME280;10470;42.670;23.354;2022-09-09T09:43:00;95047.78;;;26.00;100.00
20622;BME280;10470;42.670;23.354;2022-09-09T09:48:09;95037.94;;;26.28;100.00
20622;BME280;10470;42.670;23.354;2022-09-09T09:50:35;95036.03;;;26.44;100.00
20622;BME280;10470;42.670;23.354;2022-09-09T09:53:03;95035.56;;;26.32;100.00
20622;BME280;10470;42.670;23.354;2022-09-09T09:55:33;95024.41;;;26.11;100.00
20622;BME280;10470;42.670;23.354;2022-09-09T09:58:05;95022.25;;;25.83;100.00
20622;BME280;10470;42.670;23.354;2022-09-09T10:00:32;95022.06;;;26.44;100.00
20622;BME280;10470;42.670;23.354;2022-09-09T10:03:00;95018.38;;;26.28;100.00
20622;BME280;10470;42.670;23.354;2022-09-09T10:05:28;95020.31;;;26.54;100.00
20622;BME280;10470;42.670;23.354;2022-09-09T10:08:14;95024.03;;;26.14;100.00
20622;BME280;10470;42.670;23.354;2022-09-09T10:18:59;95035.56;;;25.90;100.00
20622;BME280;10470;42.670;23.354;2022-09-09T10:27:04;95029.13;;;25.61;100.00
20622;BME280;10470;42.670;23.354;2022-09-09T10:32:45;95040.38;;;25.55;100.00
20622;BME280;10470;42.670;23.354;2022-09-09T10:38:18;95043.63;;;25.80;100.00
20622;BME280;10470;42.670;23.354;2022-09-09T10:49:05;95044.03;;;25.63;100.00
20622;BME280;10470;42.670;23.354;2022-09-09T11:00:20;95043.69;;;25.67;100.00
20622;BME280;10470;42.670;23.354;2022-09-09T11:02:58;95036.44;;;25.85;100.00
20622;BME280;10470;42.670;23.354;2022-09-09T11:05:27;95041.06;;;25.82;100.00
20622;BME280;10470;42.670;23.354;2022-09-09T11:10:34;95037.69;;;25.63;100.00
20622;BME280;10470;42.670;23.354;2022-09-09T11:13:10;95037.00;;;25.36;100.00
20622;BME280;10470;42.670;23.354;2022-09-09T11:15:51;95022.97;;;25.28;100.00
20622;BME280;10470;42.670;23.354;2022-09-09T11:18:23;95030.06;;;25.63;100.00
20622;BME280;10470;42.670;23.354;2022-09-09T11:20:52;95032.56;;;25.88;100.00
20622;BME280;10470;42.670;23.354;2022-09-09T11:23:37;95033.25;;;26.23;100.00
20622;BME280;10470;42.670;23.354;2022-09-09T11:26:06;95025.28;;;26.27;100.00
20622;BME280;10470;42.670;23.354;2022-09-09T11:31:46;95020.44;;;26.27;100.00
20622;BME280;10470;42.670;23.354;2022-09-09T11:34:33;95008.47;;;25.98;100.00
20622;BME280;10470;42.670;23.354;2022-09-09T11:39:49;94993.25;;;25.86;100.00
20622;BME280;10470;42.670;23.354;2022-09-09T11:42:22;94992.28;;;25.83;100.00
20622;BME280;10470;42.670;23.354;2022-09-09T11:44:49;94994.56;;;26.06;100.00
20622;BME280;10470;42.670;23.354;2022-09-09T11:47:26;94974.91;;;26.19;100.00
20622;BME280;10470;42.670;23.354;2022-09-09T11:50:07;94978.72;;;26.29;100.00
20622;BME280;10470;42.670;23.354;2022-09-09T11:55:32;94946.56;;;26.65;100.00
20622;BME280;10470;42.670;23.354;2022-09-09T11:58:03;94952.91;;;26.65;100.00
20622;BME280;10470;42.670;23.354;2022-09-09T12:02:58;94960.66;;;26.59;100.00
20622;BME280;10470;42.670;23.354;2022-09-09T12:05:44;94954.63;;;26.76;100.00
20622;BME280;10470;42.670;23.354;2022-09-09T12:08:15;94965.25;;;27.14;100.00
20622;BME280;10470;42.670;23.354;2022-09-09T12:10:53;94942.78;;;27.42;100.00
20622;BME280;10470;42.670;23.354;2022-09-09T12:13:22;94957.84;;;27.24;100.00
20622;BME280;10470;42.670;23.354;2022-09-09T12:15:53;94953.97;;;27.42;100.00
20622;BME280;10470;42.670;23.354;2022-09-09T12:18:36;94945.97;;;27.62;100.00
20622;BME280;10470;42.670;23.354;2022-09-09T12:21:11;94941.53;;;28.13;100.00
20622;BME280;10470;42.670;23.354;2022-09-09T12:26:57;94946.72;;;27.78;100.00
20622;BME280;10470;42.670;23.354;2022-09-09T12:29:32;94950.47;;;28.42;100.00
20622;BME280;10470;42.670;23.354;2022-09-09T12:32:09;94938.06;;;28.75;100.00
20622;BME280;10470;42.670;23.354;2022-09-09T12:34:42;94936.59;;;29.23;97.62
20622;BME280;10470;42.670;23.354;2022-09-09T12:37:46;94930.09;;;29.12;96.69
20622;BME280;10470;42.670;23.354;2022-09-09T12:40:31;94928.88;;;28.90;100.00
20622;BME280;10470;42.670;23.354;2022-09-09T12:43:00;94918.69;;;28.39;100.00
20622;BME280;10470;42.670;23.354;2022-09-09T12:45:28;94918.69;;;28.55;100.00
20622;BME280;10470;42.670;23.354;2022-09-09T12:50:21;94919.84;;;28.21;100.00
20622;BME280;10470;42.670;23.354;2022-09-09T12:52:49;94921.34;;;28.14;100.00
20622;BME280;10470;42.670;23.354;2022-09-09T12:55:18;94912.94;;;28.14;100.00
20622;BME280;10470;42.670;23.354;2022-09-09T12:57:48;94915.75;;;28.14;100.00
20622;BME280;10470;42.670;23.354;2022-09-09T13:02:53;94900.94;;;29.00;100.00
20622;BME280;10470;42.670;23.354;2022-09-09T13:05:26;94901.97;;;28.80;100.00
20622;BME280;10470;42.670;23.354;2022-09-09T13:07:52;94889.88;;;29.02;100.00
20622;BME280;10470;42.670;23.354;2022-09-09T13:10:29;94892.88;;;29.12;100.00
20622;BME280;10470;42.670;23.354;2022-09-09T13:12:57;94894.94;;;28.56;100.00
20622;BME280;10470;42.670;23.354;2022-09-09T13:15:24;94887.69;;;28.37;100.00
20622;BME280;10470;42.670;23.354;2022-09-09T13:17:57;94895.38;;;28.21;100.00
20622;BME280;10470;42.670;23.354;2022-09-09T13:20:26;94897.47;;;27.90;100.00
20622;BME280;10470;42.670;23.354;2022-09-09T13:22:54;94888.78;;;28.57;100.00
20622;BME280;10470;42.670;23.354;2022-09-09T13:25:28;94882.59;;;28.59;100.00
20622;BME280;10470;42.670;23.354;2022-09-09T13:28:02;94872.94;;;28.29;100.00
20622;BME280;10470;42.670;23.354;2022-09-09T13:30:30;94873.91;;;28.01;100.00
20622;BME280;10470;42.670;23.354;2022-09-09T13:33:02;94877.63;;;28.11;100.00
20622;BME280;10470;42.670;23.354;2022-09-09T13:35:28;94873.56;;;28.04;100.00
20622;BME280;10470;42.670;23.354;2022-09-09T13:37:54;94867.00;;;27.71;100.00
20622;BME280;10470;42.670;23.354;2022-09-09T13:40:22;94862.16;;;27.95;100.00
20622;BME280;10470;42.670;23.354;2022-09-09T13:42:52;94863.63;;;28.11;100.00
20622;BME280;10470;42.670;23.354;2022-09-09T13:45:20;94864.03;;;27.61;100.00
20622;BME280;10470;42.670;23.354;2022-09-09T13:47:46;94859.19;;;27.85;100.00
20622;BME280;10470;42.670;23.354;2022-09-09T13:50:29;94855.63;;;27.84;100.00
20622;BME280;10470;42.670;23.354;2022-09-09T13:52:57;94844.00;;;28.19;100.00
20622;BME280;10470;42.670;23.354;2022-09-09T13:55:27;94855.06;;;28.72;100.00
20622;BME280;10470;42.670;23.354;2022-09-09T13:58:01;94852.56;;;28.84;100.00
20622;BME280;10470;42.670;23.354;2022-09-09T14:00:31;94846.56;;;28.88;100.00
20622;BME280;10470;42.670;23.354;2022-09-09T14:02:57;94855.50;;;29.34;100.00
20622;BME280;10470;42.670;23.354;2022-09-09T14:05:23;94849.41;;;29.46;100.00
20622;BME280;10470;42.670;23.354;2022-09-09T14:07:49;94854.94;;;29.86;96.11
20622;BME280;10470;42.670;23.354;2022-09-09T14:10:15;94857.94;;;30.23;93.40
20622;BME280;10470;42.670;23.354;2022-09-09T14:12:40;94863.09;;;30.69;89.96
20622;BME280;10470;42.670;23.354;2022-09-09T14:15:07;94853.84;;;30.41;89.84
20622;BME280;10470;42.670;23.354;2022-09-09T14:17:34;94839.03;;;30.23;87.86
20622;BME280;10470;42.670;23.354;2022-09-09T14:20:03;94845.34;;;30.07;89.25
20622;BME280;10470;42.670;23.354;2022-09-09T14:22:30;94845.22;;;29.54;93.00
20622;BME280;10470;42.670;23.354;2022-09-09T14:24:56;94839.13;;;29.15;97.47
20622;BME280;10470;42.670;23.354;2022-09-09T14:27:22;94835.81;;;29.09;97.68
20622;BME280;10470;42.670;23.354;2022-09-09T14:29:48;94841.13;;;29.55;93.11
20622;BME280;10470;42.670;23.354;2022-09-09T14:32:13;94835.63;;;29.07;97.25
20622;BME280;10470;42.670;23.354;2022-09-09T14:34:39;94836.78;;;28.56;100.00
20622;BME280;10470;42.670;23.354;2022-09-09T14:37:05;94843.06;;;28.80;99.85
20622;BME280;10470;42.670;23.354;2022-09-09T14:39:31;94833.28;;;28.88;99.52
20622;BME280;10470;42.670;23.354;2022-09-09T14:41:56;94831.94;;;28.57;100.00
20622;BME280;10470;42.670;23.354;2022-09-09T14:44:23;94834.94;;;28.51;100.00
20622;BME280;10470;42.670;23.354;2022-09-09T14:46:48;94831.16;;;27.93;100.00
20622;BME280;10470;42.670;23.354;2022-09-09T14:49:18;94827.16;;;28.26;100.00
20622;BME280;10470;42.670;23.354;2022-09-09T14:51:43;94831.34;;;27.95;100.00
20622;BME280;10470;42.670;23.354;2022-09-09T14:54:09;94828.38;;;27.54;100.00
20622;BME280;10470;42.670;23.354;2022-09-09T14:56:36;94832.50;;;27.84;100.00